Time;durP1;ratioP1;P1;durP2;ratioP2;P2;SDS_P1;SDS_P2;PMS_P1;PMS_P2;Temp;Humidity;BMP_temperature;BMP_pressure;BME280_temperature;BME280_humidity;BME280_pressure;Samples;Min_cycle;Max_cycle;Signal;HPM_P1;HPM_P2
2021/06/20 07:57:32;;;;;;;9.43;5.70;;;22.30;98.30;;;;;;4177679;28;20598;-80
2021/06/20 07:59:34;;;;;;;7.90;6.13;;;22.30;98.30;;;;;;4171749;28;20472;-73
2021/06/20 08:01:39;;;;;;;9.00;6.30;;;22.40;98.30;;;;;;4161174;28;20465;-74
2021/06/20 08:03:42;;;;;;;10.63;6.30;;;22.50;98.30;;;;;;4161029;28;21046;-74
2021/06/20 08:05:45;;;;;;;8.77;5.93;;;22.60;98.30;;;;;;4160037;28;20730;-73
2021/06/20 08:07:47;;;;;;;9.47;7.40;;;22.70;98.30;;;;;;4161045;28;20489;-74
2021/06/20 08:09:50;;;;;;;11.40;6.63;;;22.70;98.30;;;;;;4161152;28;20504;-74
2021/06/20 08:11:53;;;;;;;11.60;6.30;;;23.00;98.30;;;;;;4161164;28;20476;-73
2021/06/20 08:13:58;;;;;;;9.93;5.87;;;23.00;98.30;;;;;;4160427;28;20496;-73
2021/06/20 08:16:01;;;;;;;15.20;6.30;;;23.10;98.30;;;;;;4160470;28;20464;-74
2021/06/20 08:18:04;;;;;;;13.23;6.30;;;23.20;98.30;;;;;;4160680;28;20484;-74
2021/06/20 08:20:08;;;;;;;10.23;5.80;;;23.20;98.30;;;;;;4160042;28;20526;-74
2021/06/20 08:22:10;;;;;;;10.13;6.37;;;23.00;98.30;;;;;;4161207;28;20472;-74
2021/06/20 08:24:15;;;;;;;8.23;5.97;;;23.10;98.30;;;;;;4159899;28;21213;-73
2021/06/20 08:26:18;;;;;;;10.93;5.97;;;23.00;98.30;;;;;;4160209;28;20496;-73
2021/06/20 08:28:22;;;;;;;8.50;6.10;;;23.10;98.30;;;;;;4159942;28;20572;-74
2021/06/20 08:30:26;;;;;;;9.47;6.70;;;23.00;98.30;;;;;;4159865;28;20554;-75
2021/06/20 08:32:30;;;;;;;11.33;7.13;;;22.90;98.30;;;;;;4160953;28;20469;-73
2021/06/20 08:34:34;;;;;;;6.57;5.97;;;22.90;98.30;;;;;;4163259;28;20501;-73
2021/06/20 08:36:37;;;;;;;8.80;6.63;;;22.90;98.30;;;;;;4164243;28;20477;-74
2021/06/20 08:38:40;;;;;;;9.43;7.10;;;22.90;98.30;;;;;;4164346;28;20465;-73
2021/06/20 08:40:43;;;;;;;10.20;7.07;;;22.80;98.30;;;;;;4164290;28;20464;-74
2021/06/20 08:42:47;;;;;;;9.90;6.80;;;22.90;98.30;;;;;;4163868;28;20469;-74
2021/06/20 08:44:51;;;;;;;11.37;7.30;;;23.00;98.30;;;;;;4161668;28;20495;-81
2021/06/20 08:46:57;;;;;;;8.60;7.80;;;22.90;98.30;;;;;;4162316;28;20540;-80
2021/06/20 08:49:01;;;;;;;7.73;6.70;;;22.80;98.30;;;;;;4165343;28;20473;-83
2021/06/20 08:57:20;;;;;;;10.30;7.07;;;23.00;98.30;;;;;;4116609;28;20499;-87
2021/06/20 08:59:24;;;;;;;7.90;6.97;;;23.00;98.30;;;;;;4121983;28;20481;-83
2021/06/20 09:01:27;;;;;;;8.33;6.40;;;23.00;98.30;;;;;;4179916;28;20470;-83
2021/06/20 09:03:39;;;;;;;7.90;7.10;;;23.00;98.30;;;;;;4181478;28;20559;-82
2021/06/20 09:05:59;;;;;;;7.10;6.40;;;23.00;98.30;;;;;;4180330;28;20459;-83
2021/06/20 09:08:02;;;;;;;9.07;7.40;;;23.00;98.30;;;;;;4180532;28;20502;-83
2021/06/20 09:10:10;;;;;;;10.33;7.37;;;23.00;98.30;;;;;;4183014;28;20464;-83
2021/06/20 09:12:15;;;;;;;9.70;7.10;;;22.80;98.30;;;;;;4182583;28;20460;-83
2021/06/20 09:14:18;;;;;;;8.30;6.57;;;22.70;98.30;;;;;;4186669;28;20491;-83
2021/06/20 09:16:21;;;;;;;8.17;6.83;;;22.80;98.30;;;;;;4192365;28;20463;-83
2021/06/20 09:18:24;;;;;;;9.23;6.83;;;22.80;98.30;;;;;;4181550;28;20456;-83
2021/06/20 09:20:34;;;;;;;11.33;7.37;;;22.90;98.30;;;;;;4178721;28;20559;-85
2021/06/20 09:22:37;;;;;;;8.53;6.73;;;23.00;98.30;;;;;;4181460;28;20464;-83
2021/06/20 09:24:41;;;;;;;7.93;6.90;;;23.00;98.30;;;;;;4181132;28;20482;-83
2021/06/20 09:26:44;;;;;;;9.00;7.07;;;23.10;98.30;;;;;;4181228;28;21033;-84
2021/06/20 09:28:49;;;;;;;10.77;8.50;;;23.00;98.30;;;;;;4177571;28;20487;-84
2021/06/20 09:30:53;;;;;;;9.83;8.20;;;23.00;98.30;;;;;;4180187;28;20468;-85
2021/06/20 09:33:01;;;;;;;15.70;8.40;;;23.00;98.30;;;;;;4181887;28;20470;-84
2021/06/20 09:35:26;;;;;;;9.90;7.50;;;22.90;98.30;;;;;;4181784;28;20562;-85
2021/06/20 09:37:36;;;;;;;10.50;7.40;;;22.90;98.30;;;;;;4178553;28;20476;-84
2021/06/20 09:39:45;;;;;;;8.13;7.33;;;22.90;98.30;;;;;;4179081;28;21001;-84
2021/06/20 09:42:00;;;;;;;11.03;8.17;;;22.80;98.30;;;;;;4178254;28;20818;-83
2021/06/20 09:44:04;;;;;;;8.33;7.57;;;22.90;98.30;;;;;;4180030;28;20484;-83
2021/06/20 09:46:25;;;;;;;11.40;8.60;;;22.90;98.30;;;;;;4179709;28;20468;-83
2021/06/20 09:48:34;;;;;;;8.73;7.83;;;23.00;98.30;;;;;;4179028;28;20484;-84
2021/06/20 09:50:46;;;;;;;9.33;7.63;;;22.90;98.30;;;;;;4176755;28;20498;-84
2021/06/20 09:53:11;;;;;;;11.90;8.30;;;23.00;98.30;;;;;;4178371;28;20823;-83
2021/06/20 09:55:15;;;;;;;10.27;8.53;;;23.00;98.30;;;;;;4172240;28;20578;-83
2021/06/20 09:57:23;;;;;;;9.50;8.50;;;23.10;98.30;;;;;;4175915;28;20460;-83
2021/06/20 09:59:33;;;;;;;10.17;8.17;;;23.20;98.30;;;;;;4173338;28;20492;-83
2021/06/20 10:01:39;;;;;;;8.70;7.80;;;23.30;98.30;;;;;;4163810;28;20555;-83
2021/06/20 10:03:44;;;;;;;11.33;10.20;;;23.30;98.30;;;;;;4159825;28;21168;-83
2021/06/20 10:05:53;;;;;;;11.10;9.93;;;23.20;98.30;;;;;;4164816;28;20452;-83
2021/06/20 10:07:58;;;;;;;11.50;8.97;;;23.20;98.30;;;;;;4162526;28;20472;-83
2021/06/20 10:10:05;;;;;;;9.40;8.40;;;23.20;98.30;;;;;;4163540;28;20509;-83
2021/06/20 10:12:09;;;;;;;10.90;8.37;;;23.40;98.30;;;;;;4162130;28;20469;-84
2021/06/20 10:14:13;;;;;;;9.50;8.57;;;23.60;98.30;;;;;;4162194;28;20551;-83
2021/06/20 10:16:21;;;;;;;10.87;9.63;;;23.90;98.30;;;;;;4162563;28;20473;-83
2021/06/20 10:18:26;;;;;;;11.50;8.93;;;23.80;98.30;;;;;;4162549;28;20463;-83
2021/06/20 10:20:35;;;;;;;10.73;9.77;;;23.90;98.30;;;;;;4162977;28;20483;-83
2021/06/20 10:22:40;;;;;;;10.30;9.17;;;23.90;98.30;;;;;;4160772;28;20470;-83
2021/06/20 10:24:46;;;;;;;12.03;9.37;;;23.90;98.30;;;;;;4162491;28;20501;-83
2021/06/20 10:27:00;;;;;;;10.10;9.00;;;23.90;98.30;;;;;;4163572;28;21060;-83
2021/06/20 10:29:19;;;;;;;11.53;9.40;;;24.10;98.30;;;;;;4163067;28;20488;-84
2021/06/20 10:31:37;;;;;;;11.10;10.00;;;24.10;98.30;;;;;;4164050;28;20548;-84
2021/06/20 10:33:45;;;;;;;10.90;9.83;;;24.00;98.30;;;;;;4162744;28;20485;-84
2021/06/20 10:36:01;;;;;;;12.90;9.30;;;24.10;98.30;;;;;;4162773;28;20453;-84
2021/06/20 10:38:34;;;;;;;11.67;10.53;;;24.30;98.30;;;;;;4159629;28;20469;-84
2021/06/20 10:40:44;;;;;;;10.33;9.33;;;24.30;98.30;;;;;;4163326;28;20461;-84
2021/06/20 10:42:50;;;;;;;10.80;9.70;;;24.60;98.30;;;;;;4160826;28;20479;-84
2021/06/20 10:44:57;;;;;;;10.30;9.20;;;24.50;98.30;;;;;;4163408;28;20481;-83
2021/06/20 10:47:03;;;;;;;10.23;9.23;;;24.50;98.30;;;;;;4163393;28;20457;-84
2021/06/20 10:49:20;;;;;;;11.57;9.00;;;24.50;98.30;;;;;;4162966;28;20489;-84
2021/06/20 10:51:28;;;;;;;9.57;8.67;;;24.80;98.30;;;;;;4163205;28;20469;-83
2021/06/20 10:53:43;;;;;;;9.83;8.93;;;25.30;98.30;;;;;;4162210;28;20465;-83
2021/06/20 10:56:00;;;;;;;10.03;9.13;;;25.20;98.30;;;;;;4168756;28;20555;-83
2021/06/20 10:58:19;;;;;;;9.87;8.87;;;25.50;98.30;;;;;;4161815;28;20474;-84
2021/06/20 11:00:34;;;;;;;10.00;9.00;;;25.60;98.30;;;;;;4171710;28;20562;-84
2021/06/20 11:02:37;;;;;;;9.73;8.67;;;26.10;98.30;;;;;;4178358;28;20985;-83
2021/06/20 11:04:41;;;;;;;14.83;8.80;;;26.20;98.30;;;;;;4182024;28;20484;-84
2021/06/20 11:06:52;;;;;;;11.23;9.53;;;25.80;98.30;;;;;;4182610;28;20555;-84
2021/06/20 11:09:01;;;;;;;11.80;9.87;;;25.50;98.30;;;;;;4179946;28;20487;-84
2021/06/20 11:11:17;;;;;;;10.63;9.53;;;25.60;98.30;;;;;;4183871;28;20558;-84
2021/06/20 11:13:21;;;;;;;8.97;8.10;;;25.80;98.30;;;;;;4182659;28;20470;-83
2021/06/20 11:21:37;;;;;;;10.23;8.63;;;26.40;98.30;;;;;;4155795;28;20810;-82
2021/06/20 11:23:42;;;;;;;13.83;9.67;;;26.20;98.30;;;;;;4184509;28;20938;-83
2021/06/20 11:25:56;;;;;;;10.63;9.63;;;25.80;98.30;;;;;;4184907;28;20463;-84
2021/06/20 11:28:01;;;;;;;9.20;8.30;;;25.60;98.30;;;;;;4166094;28;20445;-82
2021/06/20 11:30:05;;;;;;;10.03;9.03;;;25.60;98.30;;;;;;4183248;28;20501;-84
2021/06/20 11:32:15;;;;;;;11.20;10.10;;;25.50;98.30;;;;;;4181162;28;20468;-83
2021/06/20 11:34:18;;;;;;;10.17;9.03;;;25.60;98.30;;;;;;4178422;28;20478;-83
2021/06/20 11:36:23;;;;;;;9.70;8.70;;;26.00;98.30;;;;;;4180035;28;20488;-83
2021/06/20 11:38:29;;;;;;;9.70;8.70;;;26.50;97.90;;;;;;4175766;28;20534;-82
2021/06/20 11:40:37;;;;;;;10.07;8.20;;;26.90;96.50;;;;;;4177588;28;20458;-83
2021/06/20 11:42:41;;;;;;;10.03;8.63;;;26.90;96.00;;;;;;4181703;28;20465;-82
2021/06/20 11:44:53;;;;;;;9.53;8.47;;;26.60;96.20;;;;;;4174289;28;20480;-82
2021/06/20 11:46:57;;;;;;;11.73;9.13;;;26.40;95.30;;;;;;4174795;28;20472;-82
2021/06/20 11:49:04;;;;;;;12.77;9.00;;;26.50;96.20;;;;;;4176974;28;20467;-83
2021/06/20 11:51:07;;;;;;;10.60;9.47;;;26.90;93.30;;;;;;4186666;28;21134;-83
2021/06/20 11:53:19;;;;;;;9.57;8.67;;;26.70;94.60;;;;;;4183413;28;20472;-84
2021/06/20 11:55:25;;;;;;;9.23;8.43;;;26.80;94.90;;;;;;4181984;28;20471;-83
2021/06/20 11:57:28;;;;;;;9.77;8.87;;;27.30;93.20;;;;;;4180771;28;21588;-84
2021/06/20 12:00:01;;;;;;;8.53;7.73;;;27.40;92.10;;;;;;4183219;28;20498;-83
2021/06/20 12:02:18;;;;;;;8.60;7.80;;;27.20;92.50;;;;;;4175262;28;20468;-83
2021/06/20 12:04:49;;;;;;;8.33;7.50;;;27.00;93.00;;;;;;4184958;28;20905;-87
2021/06/20 12:06:52;;;;;;;8.27;7.57;;;26.80;93.60;;;;;;4170830;28;20986;-77
2021/06/20 12:08:55;;;;;;;10.67;7.63;;;27.30;92.40;;;;;;4180717;28;20466;-77
2021/06/20 12:10:58;;;;;;;8.63;7.83;;;27.20;91.20;;;;;;4180530;28;20496;-76
2021/06/20 12:13:02;;;;;;;8.60;7.70;;;26.70;92.90;;;;;;4180514;28;20967;-76
2021/06/20 12:15:07;;;;;;;7.77;7.07;;;26.60;92.90;;;;;;4179829;28;21088;-76
2021/06/20 12:17:16;;;;;;;8.23;7.53;;;26.50;93.70;;;;;;4180889;28;20475;-75
2021/06/20 12:19:20;;;;;;;8.53;7.73;;;27.00;92.40;;;;;;4178706;28;20470;-76
2021/06/20 12:21:23;;;;;;;8.17;7.40;;;27.00;91.90;;;;;;4180259;28;20472;-76
2021/06/20 12:23:27;;;;;;;9.00;8.10;;;27.10;92.30;;;;;;4179572;28;20467;-75
2021/06/20 12:25:41;;;;;;;9.33;8.37;;;26.70;92.90;;;;;;4179987;28;20468;-76
2021/06/20 12:27:44;;;;;;;9.50;8.67;;;26.30;94.60;;;;;;4179909;28;20470;-76
2021/06/20 12:29:47;;;;;;;9.50;8.63;;;26.20;95.50;;;;;;4180249;28;20593;-76
2021/06/20 12:31:57;;;;;;;9.20;8.37;;;26.20;95.80;;;;;;4180613;28;20484;-76
2021/06/20 12:34:04;;;;;;;9.73;8.70;;;26.40;95.00;;;;;;4180243;28;20793;-76
2021/06/20 14:36:59;;;;;;;12.07;10.10;;;28.70;86.60;;;;;;4967674;23;20463;-84
2021/06/20 14:39:03;;;;;;;12.17;10.97;;;28.20;88.00;;;;;;4142135;28;20454;-83
2021/06/20 14:41:07;;;;;;;12.70;11.60;;;28.00;88.40;;;;;;4141906;28;20473;-85
2021/06/20 14:43:11;;;;;;;13.00;11.80;;;27.80;89.20;;;;;;4140759;28;20462;-84
2021/06/20 14:45:14;;;;;;;12.43;11.23;;;27.60;89.30;;;;;;4141384;28;20470;-82
2021/06/20 14:47:18;;;;;;;13.30;12.10;;;27.40;90.40;;;;;;4142133;28;20579;-83
2021/06/20 14:49:21;;;;;;;11.77;10.77;;;27.40;90.60;;;;;;4141517;28;20504;-82
2021/06/20 14:51:24;;;;;;;11.17;10.23;;;27.60;90.50;;;;;;4140559;28;20495;-83
2021/06/20 14:53:29;;;;;;;12.50;11.30;;;27.80;90.30;;;;;;4142826;28;20471;-83
2021/06/20 14:55:32;;;;;;;11.47;10.47;;;28.10;90.00;;;;;;4139420;28;20554;-82
2021/06/20 14:57:35;;;;;;;14.00;12.80;;;28.20;88.60;;;;;;4142843;28;20493;-82
2021/06/20 14:59:38;;;;;;;11.87;10.67;;;28.10;88.10;;;;;;4141284;28;20470;-85
2021/06/20 15:01:41;;;;;;;12.60;11.50;;;28.10;88.90;;;;;;4139839;28;20466;-83
2021/06/20 15:03:44;;;;;;;13.47;12.13;;;28.20;88.60;;;;;;4139485;28;20474;-83
2021/06/20 15:05:47;;;;;;;12.53;11.37;;;28.20;87.60;;;;;;4138513;28;20478;-84
2021/06/20 15:07:50;;;;;;;12.63;11.40;;;27.60;88.80;;;;;;4138875;28;20470;-83
2021/06/20 15:09:54;;;;;;;12.30;11.20;;;27.60;89.30;;;;;;4139799;28;20984;-86
2021/06/20 15:11:57;;;;;;;12.93;10.80;;;27.40;89.80;;;;;;4140098;28;20522;-84
2021/06/20 15:14:00;;;;;;;12.70;11.40;;;27.20;90.30;;;;;;4139985;28;20474;-83
2021/06/20 15:16:03;;;;;;;12.00;10.93;;;27.10;91.00;;;;;;4138832;28;20551;-82
2021/06/20 15:18:06;;;;;;;11.93;10.80;;;27.10;89.90;;;;;;4139393;28;20520;-83
2021/06/20 15:20:10;;;;;;;10.40;9.60;;;26.80;90.00;;;;;;4139665;28;20471;-83
2021/06/20 15:22:13;;;;;;;10.00;9.10;;;26.70;90.10;;;;;;4140227;28;20465;-82
2021/06/20 15:24:16;;;;;;;10.17;9.17;;;26.50;90.70;;;;;;4138371;28;20894;-85
2021/06/20 15:26:21;;;;;;;10.63;9.57;;;26.50;90.90;;;;;;4137016;28;20500;-82
2021/06/20 15:28:24;;;;;;;10.00;9.10;;;26.40;91.40;;;;;;4138564;28;20471;-83
2021/06/20 15:30:27;;;;;;;9.67;8.87;;;26.50;91.40;;;;;;4138269;28;20470;-83
2021/06/20 15:32:51;;;;;;;10.83;9.83;;;26.80;90.40;;;;;;4139847;28;20480;-83
2021/06/20 15:34:54;;;;;;;10.67;9.67;;;26.90;89.80;;;;;;4139040;28;20671;-83
2021/06/20 15:37:00;;;;;;;10.00;9.10;;;27.00;90.00;;;;;;4139771;28;20490;-83
2021/06/20 15:39:04;;;;;;;9.37;8.57;;;27.20;89.10;;;;;;4138290;28;20463;-85
2021/06/20 15:41:07;;;;;;;8.17;7.37;;;27.30;89.40;;;;;;4139963;28;20962;-84
2021/06/20 15:43:12;;;;;;;7.47;6.57;;;27.40;89.40;;;;;;4139659;28;20942;-83
2021/06/20 15:45:18;;;;;;;7.23;6.53;;;27.50;89.70;;;;;;4139229;28;20474;-83
2021/06/20 15:47:21;;;;;;;7.43;6.63;;;27.50;90.00;;;;;;4138813;28;20574;-83
2021/06/20 15:49:24;;;;;;;6.90;6.30;;;27.40;90.40;;;;;;4139584;28;20977;-82
2021/06/20 15:51:27;;;;;;;6.50;5.83;;;27.20;91.00;;;;;;4140194;28;20541;-82
2021/06/20 15:53:30;;;;;;;6.57;5.97;;;27.00;92.00;;;;;;4139536;28;20466;-85
2021/06/20 15:55:41;;;;;;;6.90;5.83;;;27.00;91.90;;;;;;4139280;28;20558;-83
2021/06/20 15:57:45;;;;;;;6.40;5.90;;;27.00;91.90;;;;;;4138458;28;20474;-83
2021/06/20 15:59:53;;;;;;;6.03;5.43;;;26.90;92.00;;;;;;4139799;28;20471;-83
2021/06/20 16:01:56;;;;;;;6.00;5.40;;;26.90;92.60;;;;;;4138519;28;20475;-82
2021/06/20 16:04:00;;;;;;;7.00;5.63;;;26.80;93.40;;;;;;4140200;28;20462;-82
2021/06/20 16:06:03;;;;;;;5.27;4.57;;;26.70;93.80;;;;;;4139375;28;20486;-83
2021/06/20 16:08:06;;;;;;;4.60;4.20;;;26.70;94.50;;;;;;4139785;28;20602;-82
2021/06/20 16:10:12;;;;;;;5.03;4.53;;;26.70;95.30;;;;;;4139528;28;20500;-86
2021/06/20 16:12:14;;;;;;;6.37;4.80;;;26.70;95.80;;;;;;4138653;28;20491;-83
2021/06/20 16:14:18;;;;;;;5.83;4.30;;;26.80;95.60;;;;;;4140343;28;20495;-83
2021/06/20 16:16:23;;;;;;;5.10;4.53;;;26.80;95.60;;;;;;4139892;28;20489;-83
2021/06/20 16:18:26;;;;;;;6.00;4.40;;;26.90;95.20;;;;;;4139480;28;20462;-83
2021/06/20 16:20:29;;;;;;;6.27;4.90;;;26.80;95.60;;;;;;4139514;28;20845;-82
2021/06/20 16:22:32;;;;;;;5.60;4.43;;;26.90;95.90;;;;;;4138909;28;20465;-83
2021/06/20 16:24:35;;;;;;;8.00;4.57;;;26.90;95.10;;;;;;4139039;28;20500;-83
2021/06/20 16:26:38;;;;;;;5.33;4.37;;;26.80;95.80;;;;;;4139103;28;20487;-82
2021/06/20 16:28:42;;;;;;;5.80;4.07;;;26.70;96.30;;;;;;4134766;28;20467;-83
2021/06/20 16:30:45;;;;;;;4.57;3.87;;;26.70;96.00;;;;;;4137094;28;21392;-82
2021/06/20 16:32:50;;;;;;;5.73;3.70;;;26.70;95.10;;;;;;4134028;28;20494;-82
2021/06/20 16:34:53;;;;;;;4.37;3.97;;;26.50;95.70;;;;;;4139479;28;20798;-83
2021/06/20 16:36:56;;;;;;;4.20;3.77;;;26.40;95.90;;;;;;4139656;28;20488;-83
2021/06/20 16:38:59;;;;;;;5.50;4.33;;;26.30;96.50;;;;;;4137022;28;20552;-82
2021/06/20 16:41:02;;;;;;;4.80;3.77;;;26.20;97.10;;;;;;4140034;28;20470;-82
2021/06/20 16:43:05;;;;;;;5.10;3.77;;;26.00;98.10;;;;;;4131911;28;20493;-83
2021/06/20 16:45:11;;;;;;;4.60;3.80;;;25.90;98.30;;;;;;4136024;28;20550;-82
2021/06/20 16:47:14;;;;;;;8.17;4.60;;;26.00;98.30;;;;;;4137146;28;20490;-83
2021/06/20 16:49:19;;;;;;;5.03;3.93;;;26.00;98.30;;;;;;4137026;28;20488;-83
2021/06/20 16:51:22;;;;;;;6.40;3.97;;;26.00;97.80;;;;;;4141878;28;20459;-82
2021/06/20 16:53:25;;;;;;;5.60;3.63;;;25.90;97.70;;;;;;4136758;28;20486;-82
2021/06/20 16:55:29;;;;;;;5.70;3.73;;;25.80;97.60;;;;;;4143164;28;20478;-82
2021/06/20 16:57:35;;;;;;;5.73;3.73;;;25.80;97.90;;;;;;4138784;28;21521;-83
2021/06/20 16:59:38;;;;;;;8.77;3.90;;;25.70;98.20;;;;;;4138228;28;20506;-83
2021/06/20 17:01:42;;;;;;;6.40;5.23;;;25.70;97.90;;;;;;4139396;28;20472;-83
2021/06/20 17:03:45;;;;;;;10.50;5.90;;;25.60;97.60;;;;;;4143527;28;20480;-82
2021/06/20 17:05:50;;;;;;;8.57;6.70;;;25.40;98.10;;;;;;4142739;28;20835;-82
2021/06/20 17:07:53;;;;;;;7.40;5.07;;;25.40;98.30;;;;;;4139364;28;20491;-83
2021/06/20 17:09:56;;;;;;;4.53;3.63;;;25.40;98.30;;;;;;4134434;28;20524;-83
2021/06/20 17:11:58;;;;;;;4.47;3.63;;;25.40;98.30;;;;;;4142031;28;20485;-82
2021/06/20 17:14:01;;;;;;;5.10;3.87;;;25.40;97.40;;;;;;4141389;28;20467;-82
2021/06/20 17:16:05;;;;;;;5.20;3.40;;;25.40;97.10;;;;;;4140195;28;20491;-82
2021/06/20 17:18:09;;;;;;;5.53;3.20;;;25.30;97.50;;;;;;4140562;28;20875;-83
2021/06/20 17:20:13;;;;;;;3.73;3.20;;;25.30;97.30;;;;;;4138853;28;20477;-85
2021/06/20 17:22:17;;;;;;;3.40;3.07;;;25.30;97.50;;;;;;4139358;28;20467;-82
2021/06/20 17:24:20;;;;;;;4.47;3.10;;;25.30;97.70;;;;;;4144647;28;21021;-82
2021/06/20 17:26:23;;;;;;;4.80;3.70;;;25.30;97.70;;;;;;4138881;28;20500;-82
2021/06/20 17:28:26;;;;;;;5.37;3.50;;;25.30;97.80;;;;;;4139161;28;20470;-82
2021/06/20 17:30:30;;;;;;;5.50;3.33;;;25.20;98.10;;;;;;4143926;28;20482;-82
2021/06/20 17:32:34;;;;;;;4.80;3.20;;;25.20;98.30;;;;;;4145032;28;20482;-82
2021/06/20 17:34:41;;;;;;;6.27;3.50;;;25.30;97.90;;;;;;4142778;28;21074;-82
2021/06/20 17:36:45;;;;;;;3.83;3.50;;;25.20;97.80;;;;;;4139397;28;20490;-82
2021/06/20 17:38:50;;;;;;;7.27;3.60;;;25.20;97.70;;;;;;4141411;28;20462;-83
2021/06/20 17:40:53;;;;;;;5.53;3.30;;;25.10;97.50;;;;;;4138146;28;20472;-82
2021/06/20 17:42:56;;;;;;;6.83;3.53;;;25.10;97.30;;;;;;4141392;28;20477;-84
2021/06/20 17:44:58;;;;;;;3.50;2.97;;;25.00;97.20;;;;;;4142820;28;20891;-82
2021/06/20 17:47:02;;;;;;;3.50;2.90;;;24.90;97.80;;;;;;4140224;28;20496;-82
2021/06/20 17:49:07;;;;;;;5.83;3.77;;;24.90;98.10;;;;;;4141826;28;20470;-82
2021/06/20 17:51:11;;;;;;;5.20;3.27;;;24.90;98.20;;;;;;4140635;28;20472;-82
2021/06/20 17:53:14;;;;;;;4.23;3.60;;;24.90;98.30;;;;;;4136398;28;20485;-82
2021/06/20 17:55:19;;;;;;;4.53;3.80;;;24.80;98.30;;;;;;4139053;28;20479;-82
2021/06/20 17:57:22;;;;;;;6.47;3.90;;;24.80;98.30;;;;;;4144432;28;20609;-83
2021/06/20 17:59:25;;;;;;;5.63;3.17;;;24.90;98.30;;;;;;4138811;28;20490;-84
2021/06/20 18:01:28;;;;;;;2.97;2.67;;;24.90;98.30;;;;;;4143224;28;20462;-82
2021/06/20 18:03:31;;;;;;;4.90;3.50;;;24.80;98.30;;;;;;4143972;28;20463;-82
2021/06/20 18:05:36;;;;;;;4.43;3.10;;;24.80;98.30;;;;;;4140572;28;20970;-82
2021/06/20 18:07:39;;;;;;;8.33;3.83;;;24.70;98.30;;;;;;4136843;28;20498;-82
2021/06/20 18:09:42;;;;;;;5.77;3.40;;;24.70;98.30;;;;;;4141216;28;20467;-81
2021/06/20 18:11:47;;;;;;;5.03;3.23;;;24.70;98.30;;;;;;4139585;28;20478;-82
2021/06/20 18:13:50;;;;;;;4.47;2.73;;;24.60;98.30;;;;;;4140357;28;20490;-82
2021/06/20 18:15:52;;;;;;;5.10;3.03;;;24.50;98.30;;;;;;4143809;28;20478;-83
2021/06/20 18:17:55;;;;;;;5.13;3.87;;;24.30;98.30;;;;;;4139927;28;20472;-82
2021/06/20 18:20:00;;;;;;;5.70;3.63;;;24.40;98.30;;;;;;4119433;28;20464;-82
2021/06/20 18:22:04;;;;;;;6.20;3.10;;;24.40;98.30;;;;;;4140694;28;20467;-83
2021/06/20 18:24:09;;;;;;;3.47;2.80;;;24.30;98.30;;;;;;4132000;28;21049;-83
2021/06/20 18:26:12;;;;;;;4.07;2.77;;;24.20;98.00;;;;;;4142431;28;20493;-82
2021/06/20 18:28:17;;;;;;;3.73;2.90;;;24.10;98.20;;;;;;4140499;28;20474;-83
2021/06/20 18:30:21;;;;;;;5.23;2.40;;;24.10;98.30;;;;;;4136021;28;20562;-83
2021/06/20 18:32:24;;;;;;;6.57;2.80;;;24.00;98.30;;;;;;4140582;28;20501;-83
2021/06/20 18:34:28;;;;;;;4.87;2.70;;;23.90;98.30;;;;;;4141500;28;20478;-83
2021/06/20 18:36:31;;;;;;;5.37;3.80;;;23.90;98.30;;;;;;4141408;28;21199;-82
2021/06/20 18:38:34;;;;;;;7.67;6.23;;;23.80;98.30;;;;;;4141738;28;20471;-83
2021/06/20 18:40:38;;;;;;;7.73;6.00;;;23.90;98.30;;;;;;4134742;28;20502;-83
2021/06/20 18:42:41;;;;;;;7.10;4.70;;;23.80;98.30;;;;;;4134853;28;20489;-85
2021/06/20 18:44:45;;;;;;;5.53;2.70;;;23.90;98.30;;;;;;4138413;28;20494;-83
2021/06/20 18:46:48;;;;;;;3.40;2.57;;;23.80;98.20;;;;;;4141221;28;20508;-83
2021/06/20 18:48:51;;;;;;;4.27;2.93;;;23.80;98.30;;;;;;4136621;28;20467;-85
2021/06/20 18:50:56;;;;;;;6.00;2.97;;;23.70;98.30;;;;;;4140415;28;20467;-84
2021/06/20 18:52:59;;;;;;;4.93;2.83;;;23.70;98.30;;;;;;4139502;28;20576;-82
2021/06/20 18:55:02;;;;;;;2.67;2.47;;;23.70;98.30;;;;;;4142028;28;21172;-83
2021/06/20 18:57:06;;;;;;;4.17;2.87;;;23.70;98.30;;;;;;4132831;28;20502;-84
2021/06/20 18:59:09;;;;;;;4.40;3.00;;;23.70;98.30;;;;;;4141211;28;20459;-82
2021/06/20 19:01:13;;;;;;;3.50;2.70;;;23.60;98.30;;;;;;4138887;28;20471;-84
2021/06/20 19:03:17;;;;;;;4.83;3.00;;;23.60;98.30;;;;;;4139432;28;20466;-85
2021/06/20 19:05:20;;;;;;;3.20;2.63;;;23.50;98.30;;;;;;4137601;28;20481;-83
2021/06/20 19:07:23;;;;;;;2.63;2.40;;;23.60;98.30;;;;;;4141532;28;20877;-83
2021/06/20 19:09:26;;;;;;;3.60;2.60;;;23.60;98.30;;;;;;4137175;28;20493;-83
2021/06/20 19:11:29;;;;;;;5.00;3.17;;;23.60;98.30;;;;;;4143901;28;20500;-82
2021/06/20 19:13:32;;;;;;;3.10;2.50;;;23.60;98.30;;;;;;4141589;28;20494;-83
2021/06/20 19:15:35;;;;;;;4.50;2.97;;;23.50;98.30;;;;;;4139386;28;20486;-83
2021/06/20 19:17:40;;;;;;;6.73;2.80;;;23.40;98.30;;;;;;4136708;28;20489;-84
2021/06/20 19:19:43;;;;;;;4.40;2.93;;;23.40;98.30;;;;;;4139011;28;20472;-84
2021/06/20 19:21:46;;;;;;;3.33;2.30;;;23.40;98.30;;;;;;4141748;28;20475;-83
2021/06/20 19:23:49;;;;;;;4.27;2.80;;;23.50;98.30;;;;;;4140828;28;20469;-84
2021/06/20 19:25:52;;;;;;;4.60;3.10;;;23.40;98.30;;;;;;4141103;28;20463;-84
2021/06/20 19:27:56;;;;;;;4.60;3.63;;;23.50;98.30;;;;;;4137007;28;20973;-84
2021/06/20 19:30:05;;;;;;;3.93;2.60;;;23.60;98.30;;;;;;4139984;28;20465;-85
2021/06/20 19:32:08;;;;;;;4.50;3.20;;;23.70;98.30;;;;;;4135900;28;20645;-84
2021/06/20 19:34:13;;;;;;;5.77;4.30;;;23.70;98.30;;;;;;4145177;28;20486;-86
2021/06/20 19:36:16;;;;;;;3.90;2.90;;;23.80;98.30;;;;;;4140913;28;20515;-85
2021/06/20 19:38:19;;;;;;;4.40;2.93;;;23.90;98.30;;;;;;4139046;28;20486;-84
2021/06/20 19:40:24;;;;;;;5.00;4.37;;;23.90;98.30;;;;;;4139437;28;20821;-83
2021/06/20 19:42:27;;;;;;;5.13;3.10;;;24.00;98.30;;;;;;4140649;28;21021;-83
2021/06/20 19:44:30;;;;;;;4.17;2.60;;;23.90;98.30;;;;;;4136205;28;20467;-85
2021/06/20 19:46:34;;;;;;;7.07;3.07;;;23.90;98.30;;;;;;4141392;28;20618;-84
2021/06/20 19:48:37;;;;;;;3.43;2.63;;;23.90;98.30;;;;;;4136143;28;20500;-83
2021/06/20 19:50:42;;;;;;;3.43;2.57;;;23.70;98.30;;;;;;4134687;28;20473;-84
2021/06/20 19:52:45;;;;;;;4.53;2.40;;;23.60;98.30;;;;;;4140164;28;20467;-85
2021/06/20 19:55:05;;;;;;;3.40;2.80;;;23.60;98.30;;;;;;4139783;28;20481;-83
2021/06/20 19:57:25;;;;;;;3.43;2.40;;;23.60;98.30;;;;;;4470925;23;20488;-85
2021/06/20 19:59:28;;;;;;;4.77;2.83;;;23.60;98.30;;;;;;4157813;28;20457;-82
2021/06/20 20:01:32;;;;;;;3.70;2.70;;;23.50;98.30;;;;;;4161006;28;20476;-82
2021/06/20 20:03:36;;;;;;;3.53;2.70;;;23.60;98.30;;;;;;4154727;28;20465;-83
2021/06/20 20:05:40;;;;;;;4.27;2.97;;;23.60;98.30;;;;;;4159565;28;20480;-82
2021/06/20 20:07:44;;;;;;;3.40;3.00;;;23.70;98.30;;;;;;4138736;28;20486;-82
2021/06/20 20:09:47;;;;;;;3.80;2.70;;;23.70;98.30;;;;;;4153690;28;20465;-82
2021/06/20 20:11:50;;;;;;;5.13;3.27;;;23.70;98.30;;;;;;4158126;28;20470;-83
2021/06/20 20:13:54;;;;;;;8.17;3.40;;;23.60;98.30;;;;;;4150709;28;20595;-83
2021/06/20 20:15:59;;;;;;;4.93;3.40;;;23.70;98.30;;;;;;4150969;28;20965;-83
2021/06/20 20:18:03;;;;;;;5.27;2.80;;;23.60;98.30;;;;;;4159112;28;20461;-83
2021/06/20 20:20:07;;;;;;;6.10;2.90;;;23.50;98.30;;;;;;4155895;28;20828;-83
2021/06/20 20:22:11;;;;;;;4.97;2.77;;;23.50;98.30;;;;;;4156878;28;20478;-82
2021/06/20 20:24:14;;;;;;;3.23;2.83;;;23.50;98.30;;;;;;4154693;28;20481;-82
2021/06/20 20:26:17;;;;;;;4.97;2.40;;;23.50;98.30;;;;;;4157729;28;20493;-82
2021/06/20 20:28:20;;;;;;;2.70;2.50;;;23.30;98.10;;;;;;4159443;28;20483;-82
2021/06/20 20:30:25;;;;;;;6.27;3.93;;;23.20;98.30;;;;;;4159069;28;20546;-81
2021/06/20 20:32:28;;;;;;;7.23;3.50;;;23.10;98.30;;;;;;4161031;28;21159;-79
2021/06/20 20:34:30;;;;;;;4.47;2.53;;;23.10;98.30;;;;;;4158631;28;20489;-79
2021/06/20 20:36:33;;;;;;;4.77;2.40;;;22.90;98.30;;;;;;4155945;28;20497;-71
2021/06/20 20:38:37;;;;;;;4.03;2.80;;;23.00;98.30;;;;;;4155438;28;20469;-72
2021/06/20 20:40:42;;;;;;;3.93;2.87;;;23.10;98.30;;;;;;4156725;28;20492;-71
2021/06/20 20:42:44;;;;;;;3.40;2.90;;;23.20;98.30;;;;;;4154557;28;20473;-72
2021/06/20 20:44:47;;;;;;;2.97;2.60;;;23.20;98.30;;;;;;4152536;28;20472;-71
2021/06/20 20:46:51;;;;;;;4.80;2.90;;;23.30;98.30;;;;;;4154316;28;21005;-72
2021/06/20 20:48:53;;;;;;;3.77;2.70;;;23.30;98.30;;;;;;4150315;28;20461;-71
2021/06/20 20:50:56;;;;;;;5.63;2.90;;;23.30;98.30;;;;;;4153181;28;20465;-72
2021/06/20 20:53:01;;;;;;;4.77;3.10;;;23.40;98.30;;;;;;4152198;28;20544;-72
2021/06/20 20:55:07;;;;;;;4.57;2.80;;;23.30;98.30;;;;;;4154102;28;20482;-72
2021/06/20 20:57:10;;;;;;;2.93;2.57;;;23.40;98.30;;;;;;4155060;28;20497;-72
2021/06/20 20:59:13;;;;;;;22.00;18.13;;;23.40;98.30;;;;;;4154617;28;20465;-71